createdAt,value
2023-04-05T00:02:18.857Z,99.90
2023-04-05T00:04:52.569Z,99.90
2023-04-05T00:07:21.437Z,99.90
2023-04-05T00:09:49.152Z,99.90
2023-04-05T00:12:16.491Z,99.90
2023-04-05T00:14:43.353Z,99.90
2023-04-05T00:17:11.968Z,99.90
2023-04-05T00:19:39.657Z,99.90
2023-04-05T00:22:06.421Z,99.90
2023-04-05T00:24:33.962Z,99.90
2023-04-05T00:27:01.363Z,99.90
2023-04-05T00:29:28.521Z,99.90
2023-04-05T00:31:56.261Z,99.90
2023-04-05T00:34:23.274Z,99.90
2023-04-05T00:36:50.132Z,99.90
2023-04-05T00:39:18.298Z,99.90
2023-04-05T00:41:46.945Z,99.90
2023-04-05T00:44:15.703Z,99.90
2023-04-05T00:46:42.722Z,99.90
2023-04-05T00:49:09.589Z,99.90
2023-04-05T00:51:38.348Z,99.90
2023-04-05T00:54:06.291Z,99.90
2023-04-05T00:56:33.330Z,99.90
2023-04-05T00:59:00.229Z,99.90
2023-04-05T01:01:28.208Z,99.90
2023-04-05T01:04:08.862Z,99.90
2023-04-05T01:07:12.946Z,99.90
2023-04-05T01:09:56.690Z,99.90
2023-04-05T01:12:27.511Z,99.90
2023-04-05T01:14:55.584Z,99.90
2023-04-05T01:17:24.603Z,99.90
2023-04-05T01:19:54.583Z,99.90
2023-04-05T01:22:38.282Z,99.90
2023-04-05T01:25:23.705Z,99.90
2023-04-05T01:27:59.560Z,99.90
2023-04-05T01:30:42.754Z,99.90
2023-04-05T01:33:28.474Z,99.90
2023-04-05T01:36:01.788Z,99.90
2023-04-05T01:38:30.310Z,99.90
2023-04-05T01:40:57.160Z,99.90
2023-04-05T01:43:24.046Z,99.90
2023-04-05T01:45:50.832Z,99.90
2023-04-05T01:48:17.610Z,99.90
2023-04-05T01:50:44.516Z,99.90
2023-04-05T01:53:11.234Z,99.90
2023-04-05T01:55:38.356Z,99.90
2023-04-05T01:58:05.457Z,99.90
2023-04-05T02:00:32.588Z,99.90
2023-04-05T02:02:59.492Z,99.90
2023-04-05T02:05:26.344Z,99.90
2023-04-05T02:07:53.059Z,99.90
2023-04-05T02:10:20.549Z,99.90
2023-04-05T02:12:47.434Z,99.90
2023-04-05T02:15:14.388Z,99.90
2023-04-05T02:17:45.857Z,99.90
2023-04-05T02:20:14.680Z,99.90
2023-04-05T02:22:42.062Z,99.90
2023-04-05T02:25:09.353Z,99.90
2023-04-05T02:27:36.179Z,99.90
2023-04-05T02:30:03.065Z,99.90
2023-04-05T02:32:29.913Z,99.90
2023-04-05T02:34:56.754Z,99.90
2023-04-05T02:37:23.546Z,99.90
2023-04-05T02:39:50.532Z,99.90
2023-04-05T02:42:17.258Z,99.90
2023-04-05T02:44:45.270Z,99.90
2023-04-05T02:47:12.049Z,99.90
2023-04-05T02:49:38.812Z,99.90
2023-04-05T02:52:05.603Z,99.90
2023-04-05T02:54:32.304Z,99.90
2023-04-05T02:57:02.406Z,99.90
2023-04-05T02:59:29.336Z,99.90
2023-04-05T03:01:56.175Z,99.90
2023-04-05T03:04:28.648Z,99.90
2023-04-05T03:06:57.315Z,99.90
2023-04-05T03:09:24.205Z,99.90
2023-04-05T03:11:50.942Z,99.90
2023-04-05T03:14:17.668Z,99.90
2023-04-05T03:16:44.759Z,99.90
2023-04-05T03:19:11.464Z,99.90
2023-04-05T03:21:39.801Z,99.90
2023-04-05T03:24:08.222Z,99.90
2023-04-05T03:26:35.023Z,99.90
2023-04-05T03:29:02.091Z,99.90
2023-04-05T03:31:30.463Z,99.90
2023-04-05T03:33:57.201Z,99.90
2023-04-05T03:36:24.118Z,99.90
2023-04-05T03:38:52.083Z,99.90
2023-04-05T03:41:18.791Z,99.90
2023-04-05T03:43:45.575Z,99.90
2023-04-05T03:46:12.355Z,99.90
2023-04-05T03:48:39.246Z,99.90
2023-04-05T03:51:06.268Z,99.90
2023-04-05T03:53:33.398Z,99.90
2023-04-05T03:56:00.290Z,99.90
2023-04-05T03:58:27.274Z,99.90
2023-04-05T04:00:56.090Z,99.90
2023-04-05T04:03:22.836Z,99.90
2023-04-05T04:05:49.615Z,99.90
2023-04-05T04:08:16.313Z,99.90
2023-04-05T04:10:43.072Z,99.90
2023-04-05T04:13:09.748Z,99.90
2023-04-05T04:15:36.533Z,99.90
2023-04-05T04:18:03.382Z,99.90
2023-04-05T04:20:30.206Z,99.90
2023-04-05T04:22:58.896Z,99.90
2023-04-05T04:25:30.633Z,99.90
2023-04-05T04:27:58.788Z,99.90
2023-04-05T04:30:25.813Z,99.90
2023-04-05T04:32:53.405Z,99.90
2023-04-05T04:35:24.699Z,99.90
2023-04-05T04:38:00.160Z,99.90
2023-04-05T04:40:40.173Z,99.90
2023-04-05T04:43:14.518Z,99.90
2023-04-05T04:45:41.726Z,99.90
2023-04-05T04:48:08.677Z,99.90
2023-04-05T04:50:35.970Z,99.90
2023-04-05T04:53:02.701Z,99.90
2023-04-05T04:55:33.463Z,99.90
2023-04-05T04:58:00.573Z,99.90
2023-04-05T05:00:27.275Z,99.90
2023-04-05T05:02:55.495Z,99.90
2023-04-05T05:05:26.437Z,99.90
2023-04-05T05:07:53.652Z,99.90
2023-04-05T05:10:21.060Z,99.90
2023-04-05T05:12:48.826Z,99.90
2023-04-05T05:15:15.675Z,99.90
2023-04-05T05:17:43.033Z,99.90
2023-04-05T05:20:11.345Z,99.90
2023-04-05T05:22:39.313Z,99.90
2023-04-05T05:25:09.204Z,99.90
2023-04-05T05:27:36.447Z,99.90
2023-04-05T05:30:03.889Z,99.90
2023-04-05T05:32:30.699Z,99.90
2023-04-05T05:34:57.555Z,99.90
2023-04-05T05:37:31.898Z,99.90
2023-04-05T05:39:59.269Z,99.90
2023-04-05T05:42:27.320Z,99.90
2023-04-05T05:44:54.057Z,99.90
2023-04-05T05:47:21.133Z,99.90
2023-04-05T05:49:49.723Z,99.90
2023-04-05T05:52:16.917Z,99.90
2023-04-05T05:54:43.664Z,99.90
2023-04-05T05:57:10.938Z,99.90
2023-04-05T05:59:37.857Z,99.90
2023-04-05T06:02:05.912Z,99.90
2023-04-05T06:04:34.162Z,99.90
2023-04-05T06:07:01.776Z,99.90
2023-04-05T06:09:29.055Z,99.90
2023-04-05T06:11:57.326Z,99.90
2023-04-05T06:14:25.219Z,99.90
2023-04-05T06:16:52.318Z,99.90
2023-04-05T06:19:19.139Z,99.90
2023-04-05T06:21:45.882Z,99.90
2023-04-05T06:24:12.713Z,99.90
2023-04-05T06:26:39.404Z,99.90
2023-04-05T06:29:06.273Z,99.90
2023-04-05T06:31:34.840Z,99.90
2023-04-05T06:34:02.295Z,99.90
2023-04-05T06:36:33.933Z,99.90
2023-04-05T06:39:00.963Z,99.90
2023-04-05T06:41:27.907Z,99.90
2023-04-05T06:43:55.506Z,99.90
2023-04-05T06:46:22.845Z,99.90
2023-04-05T06:48:50.329Z,99.90
2023-04-05T06:51:18.727Z,99.90
2023-04-05T06:53:45.429Z,99.90
2023-04-05T06:56:12.444Z,99.90
2023-04-05T06:58:39.175Z,99.90
2023-04-05T07:01:06.595Z,99.90
2023-04-05T07:03:34.068Z,99.90
2023-04-05T07:06:01.243Z,99.90
2023-04-05T07:08:29.413Z,99.90
2023-04-05T07:10:56.458Z,99.90
2023-04-05T07:13:24.712Z,99.90
2023-04-05T07:15:52.255Z,99.90
2023-04-05T07:18:19.480Z,99.90
2023-04-05T07:20:49.205Z,99.90
2023-04-05T07:23:16.586Z,99.90
2023-04-05T07:25:43.972Z,99.90
2023-04-05T07:28:11.066Z,99.90
2023-04-05T07:30:37.976Z,99.90
2023-04-05T07:33:04.869Z,99.90
2023-04-05T07:35:31.720Z,99.90
2023-04-05T07:37:58.823Z,99.90
2023-04-05T07:40:25.815Z,99.90
2023-04-05T07:42:52.568Z,99.90
2023-04-05T07:45:19.331Z,99.90
2023-04-05T07:47:46.763Z,99.90
2023-04-05T07:50:17.235Z,99.90
2023-04-05T07:52:43.990Z,99.90
2023-04-05T07:55:10.936Z,99.90
2023-04-05T07:57:37.965Z,99.90
2023-04-05T08:00:10.854Z,99.90
2023-04-05T08:02:37.803Z,99.90
2023-04-05T08:05:05.465Z,99.90
2023-04-05T08:07:32.233Z,99.90
2023-04-05T08:09:59.920Z,99.90
2023-04-05T08:12:27.456Z,99.90
2023-04-05T08:14:54.285Z,99.90
2023-04-05T08:17:21.134Z,99.90
2023-04-05T08:19:49.486Z,99.90
2023-04-05T08:22:17.800Z,99.90
2023-04-05T08:24:45.076Z,94.50
2023-04-05T08:27:12.220Z,88.10
2023-04-05T08:29:38.988Z,84.70
2023-04-05T08:32:06.184Z,82.80
2023-04-05T08:34:33.032Z,83.00
2023-04-05T08:37:00.405Z,78.50
2023-04-05T08:39:27.381Z,79.80
2023-04-05T08:42:17.413Z,78.30
2023-04-05T08:44:46.322Z,77.00
2023-04-05T08:47:18.493Z,74.60
2023-04-05T08:49:46.189Z,74.60
2023-04-05T08:52:13.096Z,78.00
2023-04-05T08:54:40.086Z,81.30
2023-04-05T08:57:08.172Z,82.40
2023-04-05T08:59:38.386Z,81.80
2023-04-05T09:02:14.392Z,80.70
2023-04-05T09:04:44.936Z,82.20
2023-04-05T09:07:13.472Z,82.10
2023-04-05T09:09:44.264Z,82.50
2023-04-05T09:12:11.610Z,82.00
2023-04-05T09:14:39.850Z,82.50
2023-04-05T09:17:06.715Z,80.60
2023-04-05T09:19:33.588Z,81.00
2023-04-05T09:22:02.147Z,76.50
2023-04-05T09:24:33.134Z,75.50
2023-04-05T09:27:13.217Z,75.80
2023-04-05T09:29:41.884Z,78.50
2023-04-05T09:32:10.617Z,75.40
2023-04-05T09:34:38.529Z,72.90
2023-04-05T09:37:15.795Z,72.40
2023-04-05T09:39:43.588Z,70.90
2023-04-05T09:42:17.545Z,71.70
2023-04-05T09:45:04.871Z,72.40
2023-04-05T09:47:36.701Z,69.90
2023-04-05T09:50:23.812Z,72.00
2023-04-05T09:52:52.543Z,70.50
2023-04-05T09:55:29.088Z,69.40
2023-04-05T09:57:55.981Z,70.30
2023-04-05T10:00:23.176Z,70.00
2023-04-05T10:02:55.632Z,70.10
2023-04-05T10:05:27.935Z,73.90
2023-04-05T10:07:56.274Z,69.70
2023-04-05T10:10:24.167Z,67.60
2023-04-05T10:12:51.364Z,62.60
2023-04-05T10:15:19.123Z,61.70
2023-04-05T10:18:08.443Z,63.30
2023-04-05T10:20:41.137Z,61.70
2023-04-05T10:23:26.987Z,61.30
2023-04-05T10:25:54.008Z,61.50
2023-04-05T10:28:34.700Z,63.30
2023-04-05T10:31:13.292Z,63.90
2023-04-05T10:33:48.208Z,65.60
2023-04-05T10:36:37.942Z,66.00
2023-04-05T10:39:12.431Z,58.70
2023-04-05T10:41:52.810Z,58.40
2023-04-05T10:44:26.269Z,60.80
2023-04-05T10:46:54.898Z,62.60
2023-04-05T10:49:39.718Z,62.90
2023-04-05T10:52:07.091Z,63.20
2023-04-05T10:54:36.934Z,64.50
2023-04-05T10:57:09.509Z,60.80
2023-04-05T10:59:41.780Z,60.00
2023-04-05T11:02:09.780Z,59.10
2023-04-05T11:04:37.691Z,59.00
2023-04-05T11:07:19.649Z,62.90
2023-04-05T11:09:52.728Z,59.00
2023-04-05T11:12:19.678Z,58.90
2023-04-05T11:14:46.509Z,62.00
2023-04-05T11:17:28.035Z,60.20
2023-04-05T11:20:05.527Z,60.10
2023-04-05T11:22:32.371Z,60.60
2023-04-05T11:25:02.708Z,61.40
2023-04-05T11:27:34.578Z,60.10
2023-04-05T11:30:03.108Z,59.50
2023-04-05T11:32:43.828Z,59.60
2023-04-05T11:35:22.986Z,63.30
2023-04-05T11:38:02.100Z,60.60
2023-04-05T11:40:33.866Z,60.30
2023-04-05T11:43:08.691Z,60.10
2023-04-05T11:45:37.517Z,60.10
2023-04-05T11:48:11.945Z,60.00
2023-04-05T11:50:42.025Z,59.50
2023-04-05T11:53:14.214Z,60.70
2023-04-05T11:55:43.186Z,60.20
2023-04-05T11:58:24.157Z,60.00
2023-04-05T12:01:07.428Z,59.50
2023-04-05T12:03:35.587Z,58.90
2023-04-05T12:06:04.743Z,59.00
2023-04-05T12:08:43.022Z,59.90
2023-04-05T12:11:11.719Z,60.40
2023-04-05T12:13:39.185Z,59.70
2023-04-05T12:16:07.962Z,62.60
2023-04-05T12:18:37.097Z,60.90
2023-04-05T12:21:09.997Z,60.00
2023-04-05T12:23:38.162Z,58.70
2023-04-05T12:26:07.706Z,59.70
2023-04-05T12:28:50.515Z,59.00
2023-04-05T12:31:17.441Z,58.30
2023-04-05T12:33:44.393Z,59.70
2023-04-05T12:36:13.965Z,58.70
2023-04-05T12:38:40.879Z,59.40
2023-04-05T12:41:07.748Z,60.00
2023-04-05T12:43:41.992Z,59.70
2023-04-05T12:46:18.489Z,64.60
2023-04-05T12:48:51.705Z,61.40
2023-04-05T12:51:18.396Z,62.30
2023-04-05T12:53:50.774Z,62.10
2023-04-05T12:56:18.471Z,61.90
2023-04-05T12:58:52.495Z,61.40
2023-04-05T13:01:19.431Z,60.00
2023-04-05T13:03:49.645Z,63.00
2023-04-05T13:06:16.830Z,56.40
2023-04-05T13:08:43.527Z,55.90
2023-04-05T13:11:10.466Z,60.80
2023-04-05T13:13:37.228Z,61.40
2023-04-05T13:16:03.977Z,59.80
2023-04-05T13:18:30.809Z,56.90
2023-04-05T13:20:57.732Z,56.40
2023-04-05T13:23:24.450Z,57.30
2023-04-05T13:25:51.146Z,57.40
2023-04-05T13:28:17.918Z,57.90
2023-04-05T13:30:44.608Z,57.40
2023-04-05T13:33:11.322Z,58.70
2023-04-05T13:35:38.118Z,58.40
2023-04-05T13:38:05.674Z,59.30
2023-04-05T13:40:32.761Z,59.50
2023-04-05T13:43:01.409Z,60.20
2023-04-05T13:45:28.169Z,58.20
2023-04-05T13:47:55.641Z,58.70
2023-04-05T13:50:22.429Z,60.20
2023-04-05T13:52:49.303Z,60.00
2023-04-05T13:55:16.103Z,59.80
2023-04-05T13:57:42.921Z,58.60
2023-04-05T14:00:10.641Z,58.70
2023-04-05T14:02:37.594Z,60.30
2023-04-05T14:05:05.238Z,59.30
2023-04-05T14:07:32.120Z,59.60
2023-04-05T14:09:58.855Z,56.90
2023-04-05T14:12:25.619Z,58.40
2023-04-05T14:14:52.367Z,58.60
2023-04-05T14:17:19.270Z,58.00
2023-04-05T14:19:46.259Z,58.40
2023-04-05T14:22:13.021Z,58.20
2023-04-05T14:24:39.850Z,58.60
2023-04-05T14:27:06.603Z,59.40
2023-04-05T14:29:33.436Z,59.00
2023-04-05T14:32:00.285Z,59.60
2023-04-05T14:34:27.114Z,60.00
2023-04-05T14:36:56.593Z,62.40
2023-04-05T14:39:23.417Z,62.80
2023-04-05T14:41:52.626Z,62.50
2023-04-05T14:44:19.358Z,63.70
2023-04-05T14:46:46.188Z,63.60
2023-04-05T14:49:12.912Z,62.50
2023-04-05T14:51:40.295Z,63.70
2023-04-05T14:54:09.685Z,63.00
2023-04-05T14:56:36.519Z,63.10
2023-04-05T14:59:03.295Z,62.10
2023-04-05T15:01:30.822Z,62.10
2023-04-05T15:03:57.833Z,64.20
2023-04-05T15:06:24.624Z,64.20
2023-04-05T15:08:51.531Z,63.50
2023-04-05T15:11:18.368Z,65.00
2023-04-05T15:13:45.271Z,65.30
2023-04-05T15:16:12.060Z,65.00
2023-04-05T15:18:38.972Z,66.50
2023-04-05T15:21:07.392Z,67.30
2023-04-05T15:23:34.270Z,69.50
2023-04-05T15:26:01.023Z,68.70
2023-04-05T15:28:27.726Z,67.90
2023-04-05T15:30:54.517Z,68.20
2023-04-05T15:33:21.276Z,68.20
2023-04-05T15:35:47.976Z,66.80
2023-04-05T15:38:14.726Z,68.70
2023-04-05T15:40:41.574Z,68.00
2023-04-05T15:43:09.454Z,68.30
2023-04-05T15:45:36.222Z,69.70
2023-04-05T15:48:03.224Z,69.00
2023-04-05T15:50:30.089Z,68.40
2023-04-05T15:52:56.860Z,69.40
2023-04-05T15:55:23.735Z,69.00
2023-04-05T15:57:54.503Z,69.30
2023-04-05T16:00:22.643Z,68.90
2023-04-05T16:02:50.178Z,68.50
2023-04-05T16:05:50.693Z,69.50
2023-04-05T16:08:20.690Z,70.20
2023-04-05T16:11:13.770Z,70.10
2023-04-05T16:14:14.176Z,72.60
2023-04-05T16:17:23.636Z,72.60
2023-04-05T16:22:14.239Z,72.30
2023-04-05T16:24:41.065Z,73.80
2023-04-05T16:27:07.909Z,73.10
2023-04-05T16:29:34.687Z,74.20
2023-04-05T16:32:01.735Z,74.50
2023-04-05T16:34:28.737Z,74.40
2023-04-05T16:36:55.634Z,74.90
2023-04-05T16:39:22.375Z,76.50
2023-04-05T16:41:49.114Z,76.30
2023-04-05T16:44:16.648Z,76.90
2023-04-05T16:46:45.279Z,77.20
2023-04-05T16:49:11.983Z,77.10
2023-04-05T16:51:38.707Z,77.20
2023-04-05T16:54:06.519Z,79.40
2023-04-05T16:56:33.353Z,78.20
2023-04-05T16:59:00.556Z,79.20
2023-04-05T17:01:27.731Z,79.40
2023-04-05T17:03:54.542Z,80.30
2023-04-05T17:06:21.378Z,81.40
2023-04-05T17:08:48.136Z,82.00
2023-04-05T17:11:14.852Z,82.30
2023-04-05T17:13:41.995Z,83.70
2023-04-05T17:16:08.971Z,83.50
2023-04-05T17:18:35.844Z,84.10
2023-04-05T17:21:02.650Z,84.80
2023-04-05T17:23:29.397Z,85.90
2023-04-05T17:25:56.147Z,85.90
2023-04-05T17:28:22.879Z,88.90
2023-04-05T17:30:49.661Z,87.20
2023-04-05T17:33:16.618Z,90.70
2023-04-05T17:35:43.620Z,91.60
2023-04-05T17:38:10.995Z,92.70
2023-04-05T17:40:37.690Z,94.40
2023-04-05T17:43:04.573Z,95.80
2023-04-05T17:45:31.265Z,96.90
2023-04-05T17:47:58.121Z,96.50
2023-04-05T17:50:25.080Z,97.80
2023-04-05T17:52:51.811Z,99.90
2023-04-05T17:55:18.626Z,99.90
2023-04-05T17:57:45.559Z,97.60
2023-04-05T18:00:12.913Z,99.90
2023-04-05T18:02:40.798Z,99.90
2023-04-05T18:05:08.040Z,99.90
2023-04-05T18:07:38.458Z,99.90
2023-04-05T18:10:06.897Z,99.90
2023-04-05T18:12:34.209Z,99.90
2023-04-05T18:15:00.999Z,99.90
2023-04-05T18:17:28.359Z,99.80
2023-04-05T18:19:55.174Z,99.90
2023-04-05T18:22:23.207Z,99.90
2023-04-05T18:24:49.972Z,99.90
2023-04-05T18:27:16.717Z,99.90
2023-04-05T18:29:44.145Z,99.90
2023-04-05T18:32:10.993Z,99.90
2023-04-05T18:34:37.820Z,99.90
2023-04-05T18:37:05.623Z,99.80
2023-04-05T18:39:32.341Z,99.90
2023-04-05T18:41:59.220Z,99.90
2023-04-05T18:44:26.089Z,99.90
2023-04-05T18:46:53.609Z,99.90
2023-04-05T18:49:21.213Z,99.90
2023-04-05T18:51:48.942Z,99.90
2023-04-05T18:54:18.331Z,99.90
2023-04-05T18:56:45.626Z,99.90
2023-04-05T18:59:12.728Z,99.90
2023-04-05T19:01:39.607Z,99.90
2023-04-05T19:04:07.401Z,99.90
2023-04-05T19:06:34.965Z,99.90
2023-04-05T19:09:02.047Z,99.90
2023-04-05T19:11:28.824Z,99.90
2023-04-05T19:13:56.005Z,99.90
2023-04-05T19:16:22.789Z,99.90
2023-04-05T19:18:49.469Z,99.90
2023-04-05T19:21:16.305Z,99.90
2023-04-05T19:23:43.008Z,99.90
2023-04-05T19:26:09.795Z,99.90
2023-04-05T19:28:36.594Z,99.90
2023-04-05T19:31:03.399Z,99.90
2023-04-05T19:33:31.614Z,99.90
2023-04-05T19:35:58.763Z,99.90
2023-04-05T19:38:25.684Z,99.90
2023-04-05T19:40:52.940Z,99.90
2023-04-05T19:43:19.777Z,99.90
2023-04-05T19:45:56.186Z,99.90
2023-04-05T19:48:47.101Z,99.90
2023-04-05T19:51:15.454Z,99.90
2023-04-05T19:53:53.676Z,99.90
2023-04-05T19:56:22.798Z,99.90
2023-04-05T19:59:16.501Z,99.90
2023-04-05T20:01:47.081Z,99.90
2023-04-05T20:04:18.889Z,99.90
2023-04-05T20:06:52.759Z,99.90
2023-04-05T20:09:21.188Z,99.90
2023-04-05T20:11:55.987Z,99.90
2023-04-05T20:14:30.418Z,99.90
2023-04-05T20:16:58.621Z,99.90
2023-04-05T20:19:30.677Z,99.90
2023-04-05T20:22:01.513Z,99.90
2023-04-05T20:24:29.286Z,99.90
2023-04-05T20:26:59.413Z,99.90
2023-04-05T20:29:28.868Z,99.90
2023-04-05T20:31:56.534Z,99.90
2023-04-05T20:34:32.512Z,99.90
2023-04-05T20:37:01.811Z,99.90
2023-04-05T20:39:29.641Z,99.90
2023-04-05T20:41:57.029Z,99.90
2023-04-05T20:44:24.477Z,99.90
2023-04-05T20:46:54.188Z,99.90
2023-04-05T20:49:22.355Z,99.90
2023-04-05T20:51:50.716Z,99.90
2023-04-05T20:54:18.974Z,99.90
2023-04-05T20:56:46.052Z,99.90
2023-04-05T20:59:14.590Z,99.90
2023-04-05T21:01:42.823Z,99.90
2023-04-05T21:04:10.148Z,99.90
2023-04-05T21:06:37.582Z,99.90
2023-04-05T21:09:04.981Z,99.90
2023-04-05T21:11:31.904Z,99.90
2023-04-05T21:13:58.684Z,99.90
2023-04-05T21:16:25.803Z,99.90
2023-04-05T21:18:52.554Z,99.90
2023-04-05T21:21:19.340Z,99.90
2023-04-05T21:23:47.566Z,99.90
2023-04-05T21:26:14.444Z,99.90
2023-04-05T21:28:41.156Z,99.90
2023-04-05T21:31:08.004Z,99.90
2023-04-05T21:33:34.910Z,99.90
2023-04-05T21:36:01.784Z,99.90
2023-04-05T21:38:28.918Z,99.90
2023-04-05T21:41:01.273Z,99.90
2023-04-05T21:43:28.127Z,99.90
2023-04-05T21:45:55.160Z,99.90
2023-04-05T21:48:24.249Z,99.90
2023-04-05T21:50:51.133Z,99.90
2023-04-05T21:53:18.127Z,99.90
2023-04-05T21:55:45.031Z,99.90
2023-04-05T21:58:11.792Z,99.90
2023-04-05T22:00:38.678Z,99.90
2023-04-05T22:03:05.555Z,99.90
2023-04-05T22:05:37.846Z,99.90
2023-04-05T22:08:06.679Z,99.90
2023-04-05T22:10:34.253Z,99.90
2023-04-05T22:13:01.096Z,99.90
2023-04-05T22:15:27.953Z,99.90
2023-04-05T22:17:55.993Z,99.90
2023-04-05T22:20:22.747Z,99.90
2023-04-05T22:22:49.566Z,99.90
2023-04-05T22:25:16.442Z,99.90
2023-04-05T22:27:44.321Z,99.90
2023-04-05T22:30:13.935Z,99.90
2023-04-05T22:32:40.830Z,99.90
2023-04-05T22:35:08.108Z,99.90
2023-04-05T22:37:38.244Z,99.90
2023-04-05T22:40:08.371Z,99.90
2023-04-05T22:42:35.377Z,99.90
2023-04-05T22:45:03.578Z,99.90
2023-04-05T22:47:30.559Z,99.90
2023-04-05T22:49:57.436Z,99.90
2023-04-05T22:52:24.281Z,99.90
2023-04-05T22:54:51.140Z,99.90
2023-04-05T22:57:20.467Z,99.90
2023-04-05T22:59:47.698Z,99.90
2023-04-05T23:02:14.835Z,99.90
2023-04-05T23:04:41.631Z,99.90
2023-04-05T23:07:08.372Z,99.90
2023-04-05T23:09:35.671Z,99.90
2023-04-05T23:12:04.430Z,99.90
2023-04-05T23:14:31.475Z,99.90
2023-04-05T23:16:58.247Z,99.90
2023-04-05T23:19:25.063Z,99.90
2023-04-05T23:21:52.139Z,99.90
2023-04-05T23:24:21.142Z,99.90
2023-04-05T23:26:47.973Z,99.90
2023-04-05T23:29:15.025Z,99.90
2023-04-05T23:31:41.752Z,99.90
2023-04-05T23:34:09.673Z,99.90
2023-04-05T23:36:36.479Z,99.90
2023-04-05T23:39:03.572Z,99.90
2023-04-05T23:41:30.365Z,99.90
2023-04-05T23:43:57.185Z,99.90
2023-04-05T23:46:24.488Z,99.90
2023-04-05T23:48:51.236Z,99.90
2023-04-05T23:51:18.165Z,99.90
2023-04-05T23:53:44.946Z,99.90
2023-04-05T23:56:11.714Z,99.90
2023-04-05T23:58:38.628Z,99.90
